sensor_id;sensor_type;location;lat;lon;timestamp;pressure;altitude;pressure_sealevel;temperature;humidity
10079;BME280;5078;42.544;22.966;2022-09-02T00:00:50;93604.06;;;20.03;100.00
10079;BME280;5078;42.544;22.966;2022-09-02T00:03:18;93635.84;;;19.90;100.00
10079;BME280;5078;42.544;22.966;2022-09-02T00:05:45;93632.53;;;19.47;100.00
10079;BME280;5078;42.544;22.966;2022-09-02T00:08:14;93633.06;;;19.61;100.00
10079;BME280;5078;42.544;22.966;2022-09-02T00:10:42;93631.34;;;19.31;100.00
10079;BME280;5078;42.544;22.966;2022-09-02T00:13:11;93634.28;;;19.30;100.00
10079;BME280;5078;42.544;22.966;2022-09-02T00:15:39;93633.94;;;19.38;100.00
10079;BME280;5078;42.544;22.966;2022-09-02T00:18:07;93625.28;;;19.36;100.00
10079;BME280;5078;42.544;22.966;2022-09-02T00:20:39;93650.88;;;19.15;100.00
10079;BME280;5078;42.544;22.966;2022-09-02T00:23:07;93648.06;;;19.33;100.00
10079;BME280;5078;42.544;22.966;2022-09-02T00:25:36;93660.44;;;19.58;100.00
10079;BME280;5078;42.544;22.966;2022-09-02T00:28:03;93655.63;;;19.72;100.00
10079;BME280;5078;42.544;22.966;2022-09-02T00:30:31;93641.84;;;19.56;100.00
10079;BME280;5078;42.544;22.966;2022-09-02T00:32:58;93654.25;;;19.46;100.00
10079;BME280;5078;42.544;22.966;2022-09-02T00:35:25;93662.91;;;19.36;100.00
10079;BME280;5078;42.544;22.966;2022-09-02T00:37:52;93652.03;;;19.31;100.00
10079;BME280;5078;42.544;22.966;2022-09-02T00:40:19;93651.59;;;19.22;100.00
10079;BME280;5078;42.544;22.966;2022-09-02T00:42:48;93648.53;;;19.18;100.00
10079;BME280;5078;42.544;22.966;2022-09-02T00:45:15;93644.78;;;18.84;100.00
10079;BME280;5078;42.544;22.966;2022-09-02T00:47:43;93644.03;;;18.65;100.00
10079;BME280;5078;42.544;22.966;2022-09-02T00:50:13;93637.56;;;18.43;100.00
10079;BME280;5078;42.544;22.966;2022-09-02T00:52:45;93623.63;;;18.34;100.00
10079;BME280;5078;42.544;22.966;2022-09-02T00:55:15;93639.09;;;18.50;100.00
10079;BME280;5078;42.544;22.966;2022-09-02T00:57:46;93640.97;;;18.62;100.00
10079;BME280;5078;42.544;22.966;2022-09-02T01:00:17;93655.78;;;18.52;100.00
10079;BME280;5078;42.544;22.966;2022-09-02T01:02:47;93647.44;;;18.72;100.00
10079;BME280;5078;42.544;22.966;2022-09-02T01:05:17;93629.19;;;18.63;100.00
10079;BME280;5078;42.544;22.966;2022-09-02T01:07:45;93634.50;;;18.81;100.00
10079;BME280;5078;42.544;22.966;2022-09-02T01:10:15;93640.34;;;19.02;100.00
10079;BME280;5078;42.544;22.966;2022-09-02T01:12:43;93636.16;;;19.17;100.00
10079;BME280;5078;42.544;22.966;2022-09-02T01:15:11;93640.69;;;19.29;100.00
10079;BME280;5078;42.544;22.966;2022-09-02T01:17:42;93632.75;;;19.34;100.00
10079;BME280;5078;42.544;22.966;2022-09-02T01:20:13;93648.63;;;19.59;100.00
10079;BME280;5078;42.544;22.966;2022-09-02T01:22:42;93637.03;;;19.58;100.00
10079;BME280;5078;42.544;22.966;2022-09-02T01:25:13;93662.66;;;19.73;100.00
10079;BME280;5078;42.544;22.966;2022-09-02T01:27:41;93651.81;;;19.68;100.00
10079;BME280;5078;42.544;22.966;2022-09-02T01:30:10;93635.81;;;19.26;100.00
10079;BME280;5078;42.544;22.966;2022-09-02T01:32:37;93649.25;;;19.26;100.00
10079;BME280;5078;42.544;22.966;2022-09-02T01:35:05;93649.03;;;19.27;100.00
10079;BME280;5078;42.544;22.966;2022-09-02T01:37:33;93645.38;;;18.98;100.00
10079;BME280;5078;42.544;22.966;2022-09-02T01:40:04;93650.28;;;19.01;100.00
10079;BME280;5078;42.544;22.966;2022-09-02T01:42:31;93647.84;;;18.88;100.00
10079;BME280;5078;42.544;22.966;2022-09-02T01:44:58;93639.81;;;18.69;100.00
10079;BME280;5078;42.544;22.966;2022-09-02T01:47:26;93629.88;;;18.58;100.00
10079;BME280;5078;42.544;22.966;2022-09-02T01:49:53;93642.75;;;18.68;100.00
10079;BME280;5078;42.544;22.966;2022-09-02T01:52:21;93616.69;;;18.57;100.00
10079;BME280;5078;42.544;22.966;2022-09-02T01:54:49;93634.31;;;18.64;100.00
10079;BME280;5078;42.544;22.966;2022-09-02T01:57:17;93623.25;;;18.72;100.00
10079;BME280;5078;42.544;22.966;2022-09-02T01:59:44;93616.59;;;18.63;100.00
10079;BME280;5078;42.544;22.966;2022-09-02T02:02:11;93605.47;;;18.48;100.00
10079;BME280;5078;42.544;22.966;2022-09-02T02:04:38;93617.97;;;18.54;100.00
10079;BME280;5078;42.544;22.966;2022-09-02T02:07:05;93611.44;;;18.50;100.00
10079;BME280;5078;42.544;22.966;2022-09-02T02:09:32;93606.25;;;18.37;100.00
10079;BME280;5078;42.544;22.966;2022-09-02T02:11:59;93606.50;;;18.47;100.00
10079;BME280;5078;42.544;22.966;2022-09-02T02:14:28;93611.78;;;18.53;100.00
10079;BME280;5078;42.544;22.966;2022-09-02T02:16:55;93609.09;;;18.53;100.00
10079;BME280;5078;42.544;22.966;2022-09-02T02:19:22;93602.34;;;18.63;100.00
10079;BME280;5078;42.544;22.966;2022-09-02T02:21:49;93598.66;;;18.75;100.00
10079;BME280;5078;42.544;22.966;2022-09-02T02:24:16;93596.41;;;18.72;100.00
10079;BME280;5078;42.544;22.966;2022-09-02T02:26:43;93589.53;;;18.77;100.00
10079;BME280;5078;42.544;22.966;2022-09-02T02:29:10;93593.16;;;18.94;100.00
10079;BME280;5078;42.544;22.966;2022-09-02T02:31:38;93584.88;;;19.07;100.00
10079;BME280;5078;42.544;22.966;2022-09-02T02:34:05;93586.50;;;19.08;100.00
10079;BME280;5078;42.544;22.966;2022-09-02T02:36:32;93533.69;;;18.55;100.00
10079;BME280;5078;42.544;22.966;2022-09-02T02:38:59;93591.41;;;18.88;100.00
10079;BME280;5078;42.544;22.966;2022-09-02T02:41:26;93597.94;;;18.92;100.00
10079;BME280;5078;42.544;22.966;2022-09-02T02:43:53;93590.69;;;19.04;100.00
10079;BME280;5078;42.544;22.966;2022-09-02T02:46:20;93584.88;;;19.07;100.00
10079;BME280;5078;42.544;22.966;2022-09-02T02:48:48;93593.59;;;19.14;100.00
10079;BME280;5078;42.544;22.966;2022-09-02T02:51:15;93587.31;;;19.21;100.00
10079;BME280;5078;42.544;22.966;2022-09-02T02:53:42;93583.47;;;18.93;100.00
10079;BME280;5078;42.544;22.966;2022-09-02T02:56:09;93566.41;;;18.99;100.00
10079;BME280;5078;42.544;22.966;2022-09-02T02:58:36;93565.25;;;18.95;100.00
10079;BME280;5078;42.544;22.966;2022-09-02T03:01:02;93582.75;;;19.09;100.00
10079;BME280;5078;42.544;22.966;2022-09-02T03:03:29;93571.56;;;19.12;100.00
10079;BME280;5078;42.544;22.966;2022-09-02T03:05:58;93581.38;;;18.95;100.00
10079;BME280;5078;42.544;22.966;2022-09-02T03:08:25;93594.22;;;18.93;100.00
10079;BME280;5078;42.544;22.966;2022-09-02T03:10:53;93579.84;;;18.99;100.00
10079;BME280;5078;42.544;22.966;2022-09-02T03:13:20;93560.09;;;18.93;100.00
10079;BME280;5078;42.544;22.966;2022-09-02T03:15:48;93587.69;;;19.12;100.00
10079;BME280;5078;42.544;22.966;2022-09-02T03:18:15;93586.63;;;18.90;100.00
10079;BME280;5078;42.544;22.966;2022-09-02T03:20:42;93594.16;;;18.69;100.00
10079;BME280;5078;42.544;22.966;2022-09-02T03:23:10;93530.63;;;18.28;100.00
10079;BME280;5078;42.544;22.966;2022-09-02T03:25:41;93587.28;;;18.73;100.00
10079;BME280;5078;42.544;22.966;2022-09-02T03:28:09;93590.94;;;18.91;100.00
10079;BME280;5078;42.544;22.966;2022-09-02T03:30:35;93592.81;;;18.79;100.00
10079;BME280;5078;42.544;22.966;2022-09-02T03:33:03;93580.38;;;18.66;100.00
10079;BME280;5078;42.544;22.966;2022-09-02T03:35:31;93594.09;;;18.76;100.00
10079;BME280;5078;42.544;22.966;2022-09-02T03:37:59;93599.00;;;18.79;100.00
10079;BME280;5078;42.544;22.966;2022-09-02T03:40:28;93594.63;;;18.66;100.00
10079;BME280;5078;42.544;22.966;2022-09-02T03:42:55;93597.44;;;18.71;100.00
10079;BME280;5078;42.544;22.966;2022-09-02T03:45:23;93595.13;;;18.87;100.00
10079;BME280;5078;42.544;22.966;2022-09-02T03:47:50;93538.22;;;18.54;100.00
10079;BME280;5078;42.544;22.966;2022-09-02T03:50:19;93593.41;;;18.92;100.00
10079;BME280;5078;42.544;22.966;2022-09-02T03:52:47;93589.84;;;18.68;100.00
10079;BME280;5078;42.544;22.966;2022-09-02T03:55:15;93596.78;;;18.88;100.00
10079;BME280;5078;42.544;22.966;2022-09-02T03:57:44;93598.53;;;18.94;100.00
10079;BME280;5078;42.544;22.966;2022-09-02T04:00:12;93594.69;;;18.90;100.00
10079;BME280;5078;42.544;22.966;2022-09-02T04:02:39;93600.78;;;18.97;100.00
10079;BME280;5078;42.544;22.966;2022-09-02T04:05:07;93595.16;;;19.10;100.00
10079;BME280;5078;42.544;22.966;2022-09-02T04:07:34;93593.03;;;19.12;100.00
10079;BME280;5078;42.544;22.966;2022-09-02T04:10:01;93593.47;;;18.62;100.00
10079;BME280;5078;42.544;22.966;2022-09-02T04:12:28;93607.88;;;18.80;100.00
10079;BME280;5078;42.544;22.966;2022-09-02T04:14:56;93615.19;;;18.72;100.00
10079;BME280;5078;42.544;22.966;2022-09-02T04:17:22;93622.41;;;18.60;100.00
10079;BME280;5078;42.544;22.966;2022-09-02T04:19:49;93622.88;;;18.57;100.00
10079;BME280;5078;42.544;22.966;2022-09-02T04:22:16;93622.94;;;18.39;100.00
10079;BME280;5078;42.544;22.966;2022-09-02T04:24:43;93633.50;;;18.10;100.00
10079;BME280;5078;42.544;22.966;2022-09-02T04:27:09;93636.03;;;18.05;100.00
10079;BME280;5078;42.544;22.966;2022-09-02T04:29:36;93636.47;;;18.02;100.00
10079;BME280;5078;42.544;22.966;2022-09-02T04:32:04;93634.06;;;18.12;100.00
10079;BME280;5078;42.544;22.966;2022-09-02T04:34:31;93642.41;;;18.22;100.00
10079;BME280;5078;42.544;22.966;2022-09-02T04:36:58;93643.00;;;18.36;100.00
10079;BME280;5078;42.544;22.966;2022-09-02T04:39:25;93640.38;;;18.48;100.00
10079;BME280;5078;42.544;22.966;2022-09-02T04:41:51;93647.09;;;18.39;100.00
10079;BME280;5078;42.544;22.966;2022-09-02T04:44:19;93652.81;;;18.30;100.00
10079;BME280;5078;42.544;22.966;2022-09-02T04:46:45;93628.25;;;18.15;100.00
10079;BME280;5078;42.544;22.966;2022-09-02T04:49:14;93660.31;;;18.52;100.00
10079;BME280;5078;42.544;22.966;2022-09-02T04:51:41;93655.28;;;18.44;100.00
10079;BME280;5078;42.544;22.966;2022-09-02T04:54:07;93663.25;;;18.50;100.00
10079;BME280;5078;42.544;22.966;2022-09-02T04:56:34;93642.59;;;18.51;100.00
10079;BME280;5078;42.544;22.966;2022-09-02T04:59:03;93613.50;;;18.36;100.00
10079;BME280;5078;42.544;22.966;2022-09-02T05:01:32;93661.63;;;18.61;100.00
10079;BME280;5078;42.544;22.966;2022-09-02T05:03:59;93644.47;;;18.50;100.00
10079;BME280;5078;42.544;22.966;2022-09-02T05:06:28;93660.78;;;18.37;100.00
10079;BME280;5078;42.544;22.966;2022-09-02T05:08:57;93662.75;;;18.42;100.00
10079;BME280;5078;42.544;22.966;2022-09-02T05:11:26;93643.38;;;18.40;100.00
10079;BME280;5078;42.544;22.966;2022-09-02T05:13:55;93661.75;;;18.66;100.00
10079;BME280;5078;42.544;22.966;2022-09-02T05:16:24;93656.56;;;18.41;100.00
10079;BME280;5078;42.544;22.966;2022-09-02T05:18:52;93612.28;;;18.20;100.00
10079;BME280;5078;42.544;22.966;2022-09-02T05:21:20;93623.19;;;18.07;100.00
10079;BME280;5078;42.544;22.966;2022-09-02T05:23:49;93666.75;;;18.51;100.00
10079;BME280;5078;42.544;22.966;2022-09-02T05:26:16;93660.81;;;18.61;100.00
10079;BME280;5078;42.544;22.966;2022-09-02T05:28:43;93665.91;;;18.81;100.00
10079;BME280;5078;42.544;22.966;2022-09-02T05:31:12;93658.56;;;18.88;100.00
10079;BME280;5078;42.544;22.966;2022-09-02T05:33:40;93668.31;;;19.12;100.00
10079;BME280;5078;42.544;22.966;2022-09-02T05:36:09;93629.84;;;19.12;100.00
10079;BME280;5078;42.544;22.966;2022-09-02T05:38:37;93657.53;;;19.36;100.00
10079;BME280;5078;42.544;22.966;2022-09-02T05:41:06;93644.41;;;19.51;100.00
10079;BME280;5078;42.544;22.966;2022-09-02T05:43:34;93646.75;;;19.59;100.00
10079;BME280;5078;42.544;22.966;2022-09-02T05:46:03;93653.44;;;19.69;100.00
10079;BME280;5078;42.544;22.966;2022-09-02T05:48:32;93619.66;;;19.37;100.00
10079;BME280;5078;42.544;22.966;2022-09-02T05:51:16;93665.56;;;19.83;100.00
10079;BME280;5078;42.544;22.966;2022-09-02T05:53:43;93664.16;;;19.92;100.00
10079;BME280;5078;42.544;22.966;2022-09-02T05:56:11;93658.81;;;19.69;100.00
10079;BME280;5078;42.544;22.966;2022-09-02T05:58:38;93654.69;;;19.78;100.00
10079;BME280;5078;42.544;22.966;2022-09-02T06:01:09;93658.50;;;19.94;100.00
10079;BME280;5078;42.544;22.966;2022-09-02T06:03:37;93653.00;;;20.00;100.00
10079;BME280;5078;42.544;22.966;2022-09-02T06:06:05;93653.72;;;19.96;100.00
10079;BME280;5078;42.544;22.966;2022-09-02T06:08:32;93656.41;;;19.96;100.00
10079;BME280;5078;42.544;22.966;2022-09-02T06:10:59;93663.25;;;19.75;100.00
10079;BME280;5078;42.544;22.966;2022-09-02T06:13:28;93667.56;;;19.76;100.00
10079;BME280;5078;42.544;22.966;2022-09-02T06:15:55;93663.13;;;19.46;100.00
10079;BME280;5078;42.544;22.966;2022-09-02T06:18:23;93667.00;;;19.62;100.00
10079;BME280;5078;42.544;22.966;2022-09-02T06:20:50;93670.75;;;19.73;100.00
10079;BME280;5078;42.544;22.966;2022-09-02T06:23:17;93676.00;;;19.68;100.00
10079;BME280;5078;42.544;22.966;2022-09-02T06:25:45;93656.47;;;19.60;100.00
10079;BME280;5078;42.544;22.966;2022-09-02T06:28:13;93667.28;;;19.89;100.00
10079;BME280;5078;42.544;22.966;2022-09-02T06:30:43;93665.84;;;19.70;100.00
10079;BME280;5078;42.544;22.966;2022-09-02T06:33:10;93667.44;;;19.59;100.00
10079;BME280;5078;42.544;22.966;2022-09-02T06:35:39;93669.78;;;19.79;100.00
10079;BME280;5078;42.544;22.966;2022-09-02T06:38:06;93673.19;;;19.74;100.00
10079;BME280;5078;42.544;22.966;2022-09-02T06:40:35;93650.16;;;19.31;100.00
10079;BME280;5078;42.544;22.966;2022-09-02T06:43:02;93677.19;;;19.25;100.00
10079;BME280;5078;42.544;22.966;2022-09-02T06:45:29;93674.94;;;19.57;100.00
10079;BME280;5078;42.544;22.966;2022-09-02T06:47:58;93677.59;;;19.92;100.00
10079;BME280;5078;42.544;22.966;2022-09-02T06:50:24;93682.41;;;19.67;100.00
10079;BME280;5078;42.544;22.966;2022-09-02T06:52:51;93685.81;;;19.86;100.00
10079;BME280;5078;42.544;22.966;2022-09-02T06:55:18;93678.81;;;19.73;100.00
10079;BME280;5078;42.544;22.966;2022-09-02T06:57:45;93688.63;;;19.55;100.00
10079;BME280;5078;42.544;22.966;2022-09-02T07:00:12;93680.84;;;19.94;100.00
10079;BME280;5078;42.544;22.966;2022-09-02T07:02:41;93675.41;;;20.18;100.00
10079;BME280;5078;42.544;22.966;2022-09-02T07:05:09;93683.22;;;19.91;100.00
10079;BME280;5078;42.544;22.966;2022-09-02T07:07:38;93680.41;;;19.97;100.00
10079;BME280;5078;42.544;22.966;2022-09-02T07:10:08;93684.41;;;19.59;100.00
10079;BME280;5078;42.544;22.966;2022-09-02T07:12:35;93688.50;;;19.86;100.00
10079;BME280;5078;42.544;22.966;2022-09-02T07:15:03;93679.63;;;20.14;100.00
10079;BME280;5078;42.544;22.966;2022-09-02T07:17:30;93666.13;;;20.25;100.00
10079;BME280;5078;42.544;22.966;2022-09-02T07:19:57;93681.53;;;20.42;100.00
10079;BME280;5078;42.544;22.966;2022-09-02T07:22:26;93690.75;;;20.58;100.00
10079;BME280;5078;42.544;22.966;2022-09-02T07:24:53;93694.56;;;20.33;100.00
10079;BME280;5078;42.544;22.966;2022-09-02T07:27:20;93700.28;;;20.37;100.00
10079;BME280;5078;42.544;22.966;2022-09-02T07:29:47;93703.13;;;20.59;100.00
10079;BME280;5078;42.544;22.966;2022-09-02T07:32:14;93707.72;;;20.58;100.00
10079;BME280;5078;42.544;22.966;2022-09-02T07:34:41;93702.59;;;20.57;100.00
10079;BME280;5078;42.544;22.966;2022-09-02T07:37:08;93694.41;;;20.40;100.00
10079;BME280;5078;42.544;22.966;2022-09-02T07:39:36;93710.91;;;20.43;100.00
10079;BME280;5078;42.544;22.966;2022-09-02T07:42:03;93702.25;;;20.13;100.00
10079;BME280;5078;42.544;22.966;2022-09-02T07:44:30;93710.78;;;20.10;100.00
10079;BME280;5078;42.544;22.966;2022-09-02T07:46:57;93706.34;;;20.03;100.00
10079;BME280;5078;42.544;22.966;2022-09-02T07:49:24;93703.34;;;19.88;100.00
10079;BME280;5078;42.544;22.966;2022-09-02T07:51:51;93700.47;;;20.07;100.00
10079;BME280;5078;42.544;22.966;2022-09-02T07:54:20;93667.78;;;19.74;100.00
10079;BME280;5078;42.544;22.966;2022-09-02T07:56:50;93694.31;;;19.94;100.00
10079;BME280;5078;42.544;22.966;2022-09-02T07:59:18;93723.22;;;19.64;100.00
10079;BME280;5078;42.544;22.966;2022-09-02T08:01:45;93700.19;;;19.44;100.00
10079;BME280;5078;42.544;22.966;2022-09-02T08:04:14;93712.69;;;19.97;100.00
10079;BME280;5078;42.544;22.966;2022-09-02T08:06:40;93714.41;;;20.15;100.00
10079;BME280;5078;42.544;22.966;2022-09-02T08:09:08;93717.06;;;20.27;100.00
10079;BME280;5078;42.544;22.966;2022-09-02T08:11:35;93711.28;;;20.35;100.00
10079;BME280;5078;42.544;22.966;2022-09-02T08:14:05;93722.59;;;20.49;100.00
10079;BME280;5078;42.544;22.966;2022-09-02T08:16:32;93718.25;;;20.19;100.00
10079;BME280;5078;42.544;22.966;2022-09-02T08:18:59;93712.28;;;20.17;100.00
10079;BME280;5078;42.544;22.966;2022-09-02T08:21:26;93696.25;;;20.22;100.00
10079;BME280;5078;42.544;22.966;2022-09-02T08:23:54;93695.59;;;20.03;100.00
10079;BME280;5078;42.544;22.966;2022-09-02T08:26:21;93717.22;;;20.09;100.00
10079;BME280;5078;42.544;22.966;2022-09-02T08:28:48;93718.47;;;20.30;100.00
10079;BME280;5078;42.544;22.966;2022-09-02T08:31:16;93723.38;;;20.33;100.00
10079;BME280;5078;42.544;22.966;2022-09-02T08:33:43;93713.88;;;20.30;100.00
10079;BME280;5078;42.544;22.966;2022-09-02T08:36:10;93719.16;;;20.65;100.00
10079;BME280;5078;42.544;22.966;2022-09-02T08:38:40;93686.16;;;20.58;100.00
10079;BME280;5078;42.544;22.966;2022-09-02T08:41:13;93711.66;;;20.67;100.00
10079;BME280;5078;42.544;22.966;2022-09-02T08:43:43;93710.19;;;20.60;100.00
10079;BME280;5078;42.544;22.966;2022-09-02T08:46:12;93709.19;;;20.66;100.00
10079;BME280;5078;42.544;22.966;2022-09-02T08:48:45;93700.41;;;20.71;100.00
10079;BME280;5078;42.544;22.966;2022-09-02T08:51:17;93697.66;;;20.99;100.00
10079;BME280;5078;42.544;22.966;2022-09-02T08:53:49;93679.03;;;20.98;100.00
10079;BME280;5078;42.544;22.966;2022-09-02T08:56:17;93715.31;;;21.24;100.00
10079;BME280;5078;42.544;22.966;2022-09-02T08:58:48;93714.00;;;21.26;100.00
10079;BME280;5078;42.544;22.966;2022-09-02T09:01:24;93704.84;;;21.27;100.00
10079;BME280;5078;42.544;22.966;2022-09-02T09:04:22;93703.72;;;21.23;100.00
10079;BME280;5078;42.544;22.966;2022-09-02T09:07:00;93705.13;;;21.43;100.00
10079;BME280;5078;42.544;22.966;2022-09-02T09:09:35;93707.41;;;21.51;100.00
10079;BME280;5078;42.544;22.966;2022-09-02T09:12:09;93711.75;;;21.52;100.00
10079;BME280;5078;42.544;22.966;2022-09-02T09:14:46;93710.44;;;21.54;100.00
10079;BME280;5078;42.544;22.966;2022-09-02T09:17:23;93713.09;;;21.71;100.00
10079;BME280;5078;42.544;22.966;2022-09-02T09:19:54;93677.72;;;21.51;100.00
10079;BME280;5078;42.544;22.966;2022-09-02T09:22:28;93708.41;;;21.84;100.00
10079;BME280;5078;42.544;22.966;2022-09-02T09:24:57;93675.22;;;21.66;100.00
10079;BME280;5078;42.544;22.966;2022-09-02T09:27:24;93688.47;;;21.85;100.00
10079;BME280;5078;42.544;22.966;2022-09-02T09:29:51;93710.72;;;21.75;100.00
10079;BME280;5078;42.544;22.966;2022-09-02T09:32:25;93695.81;;;21.89;100.00
10079;BME280;5078;42.544;22.966;2022-09-02T09:34:58;93703.56;;;21.86;100.00
10079;BME280;5078;42.544;22.966;2022-09-02T09:37:35;93701.28;;;21.94;100.00
10079;BME280;5078;42.544;22.966;2022-09-02T09:40:27;93707.16;;;21.91;100.00
10079;BME280;5078;42.544;22.966;2022-09-02T09:42:57;93706.47;;;21.79;100.00
10079;BME280;5078;42.544;22.966;2022-09-02T09:45:31;93698.44;;;21.84;100.00
10079;BME280;5078;42.544;22.966;2022-09-02T09:48:17;93697.72;;;21.94;100.00
10079;BME280;5078;42.544;22.966;2022-09-02T09:50:46;93693.09;;;21.89;100.00
10079;BME280;5078;42.544;22.966;2022-09-02T09:53:15;93697.13;;;21.87;100.00
10079;BME280;5078;42.544;22.966;2022-09-02T09:55:52;93696.28;;;21.86;100.00
10079;BME280;5078;42.544;22.966;2022-09-02T09:58:20;93662.31;;;21.68;100.00
10079;BME280;5078;42.544;22.966;2022-09-02T10:00:48;93695.66;;;22.01;100.00
10079;BME280;5078;42.544;22.966;2022-09-02T10:03:22;93694.41;;;22.09;100.00
10079;BME280;5078;42.544;22.966;2022-09-02T10:05:54;93694.41;;;22.09;100.00
10079;BME280;5078;42.544;22.966;2022-09-02T10:08:23;93696.06;;;22.10;100.00
10079;BME280;5078;42.544;22.966;2022-09-02T10:10:59;93682.63;;;21.93;100.00
10079;BME280;5078;42.544;22.966;2022-09-02T10:13:28;93691.47;;;21.88;100.00
10079;BME280;5078;42.544;22.966;2022-09-02T10:16:07;93676.66;;;21.91;100.00
10079;BME280;5078;42.544;22.966;2022-09-02T10:18:43;93685.16;;;22.00;100.00
10079;BME280;5078;42.544;22.966;2022-09-02T10:21:23;93683.78;;;22.19;100.00
10079;BME280;5078;42.544;22.966;2022-09-02T10:23:58;93682.00;;;22.08;100.00
10079;BME280;5078;42.544;22.966;2022-09-02T10:26:35;93673.41;;;22.33;100.00
10079;BME280;5078;42.544;22.966;2022-09-02T10:29:21;93670.47;;;22.34;100.00
10079;BME280;5078;42.544;22.966;2022-09-02T10:31:59;93667.88;;;22.45;100.00
10079;BME280;5078;42.544;22.966;2022-09-02T10:34:41;93672.19;;;22.46;100.00
10079;BME280;5078;42.544;22.966;2022-09-02T10:37:17;93670.22;;;22.63;100.00
10079;BME280;5078;42.544;22.966;2022-09-02T10:39:58;93670.16;;;22.85;100.00
10079;BME280;5078;42.544;22.966;2022-09-02T10:42:41;93665.88;;;22.89;100.00
10079;BME280;5078;42.544;22.966;2022-09-02T10:45:14;93663.03;;;23.01;100.00
10079;BME280;5078;42.544;22.966;2022-09-02T10:47:46;93598.28;;;22.57;100.00
10079;BME280;5078;42.544;22.966;2022-09-02T10:50:21;93639.19;;;23.30;100.00
10079;BME280;5078;42.544;22.966;2022-09-02T10:53:11;93654.47;;;23.94;100.00
10079;BME280;5078;42.544;22.966;2022-09-02T10:55:45;93636.69;;;24.19;100.00
10079;BME280;5078;42.544;22.966;2022-09-02T10:58:19;93648.25;;;24.77;100.00
10079;BME280;5078;42.544;22.966;2022-09-02T11:00:49;93654.88;;;24.28;100.00
10079;BME280;5078;42.544;22.966;2022-09-02T11:03:21;93647.94;;;24.58;100.00
10079;BME280;5078;42.544;22.966;2022-09-02T11:05:51;93634.88;;;24.45;100.00
10079;BME280;5078;42.544;22.966;2022-09-02T11:08:25;93630.97;;;24.05;100.00
10079;BME280;5078;42.544;22.966;2022-09-02T11:11:00;93647.44;;;24.71;100.00
10079;BME280;5078;42.544;22.966;2022-09-02T11:13:34;93650.34;;;24.44;100.00
10079;BME280;5078;42.544;22.966;2022-09-02T11:16:06;93647.19;;;24.88;100.00
10079;BME280;5078;42.544;22.966;2022-09-02T11:18:41;93639.34;;;25.23;100.00
10079;BME280;5078;42.544;22.966;2022-09-02T11:21:28;93645.81;;;25.63;100.00
10079;BME280;5078;42.544;22.966;2022-09-02T11:24:03;93643.94;;;25.48;100.00
10079;BME280;5078;42.544;22.966;2022-09-02T11:26:34;93639.84;;;25.66;99.96
10079;BME280;5078;42.544;22.966;2022-09-02T11:29:09;93639.84;;;25.66;92.97
10079;BME280;5078;42.544;22.966;2022-09-02T11:31:42;93641.78;;;25.39;92.93
10079;BME280;5078;42.544;22.966;2022-09-02T11:34:16;93639.63;;;25.36;95.92
10079;BME280;5078;42.544;22.966;2022-09-02T11:36:45;93629.03;;;25.35;93.75
10079;BME280;5078;42.544;22.966;2022-09-02T11:39:18;93628.75;;;25.52;92.44
10079;BME280;5078;42.544;22.966;2022-09-02T11:42:01;93605.13;;;25.52;92.29
10079;BME280;5078;42.544;22.966;2022-09-02T11:44:45;93547.06;;;25.33;92.61
10079;BME280;5078;42.544;22.966;2022-09-02T11:47:39;93621.06;;;25.90;91.77
10079;BME280;5078;42.544;22.966;2022-09-02T11:50:19;93619.75;;;25.72;91.48
10079;BME280;5078;42.544;22.966;2022-09-02T11:52:58;93619.63;;;26.08;89.94
10079;BME280;5078;42.544;22.966;2022-09-02T11:55:33;93616.75;;;25.89;88.30
10079;BME280;5078;42.544;22.966;2022-09-02T11:58:01;93617.84;;;25.72;90.29
10079;BME280;5078;42.544;22.966;2022-09-02T12:00:31;93614.88;;;25.48;90.44
10079;BME280;5078;42.544;22.966;2022-09-02T12:03:10;93610.47;;;25.83;90.66
10079;BME280;5078;42.544;22.966;2022-09-02T12:05:46;93609.78;;;25.21;93.92
10079;BME280;5078;42.544;22.966;2022-09-02T12:17:32;93594.56;;;24.69;95.62
10079;BME280;5078;42.544;22.966;2022-09-02T12:20:03;93603.22;;;24.61;96.76
10079;BME280;5078;42.544;22.966;2022-09-02T12:22:35;93595.06;;;24.45;97.99
10079;BME280;5078;42.544;22.966;2022-09-02T12:25:34;93602.41;;;24.55;98.96
10079;BME280;5078;42.544;22.966;2022-09-02T12:28:23;93604.06;;;24.77;97.16
10079;BME280;5078;42.544;22.966;2022-09-02T12:31:35;93598.09;;;24.85;95.12
10079;BME280;5078;42.544;22.966;2022-09-02T12:34:52;93604.81;;;24.41;97.16
10079;BME280;5078;42.544;22.966;2022-09-02T12:40:32;93598.09;;;24.74;96.16
10079;BME280;5078;42.544;22.966;2022-09-02T12:43:05;93593.75;;;24.73;95.37
10079;BME280;5078;42.544;22.966;2022-09-02T12:45:41;93596.44;;;24.73;94.85
10079;BME280;5078;42.544;22.966;2022-09-02T12:48:13;93593.47;;;24.54;96.19
10079;BME280;5078;42.544;22.966;2022-09-02T12:50:53;93593.41;;;24.44;97.38
10079;BME280;5078;42.544;22.966;2022-09-02T12:53:27;93552.41;;;24.10;98.28
10079;BME280;5078;42.544;22.966;2022-09-02T12:55:57;93602.84;;;24.21;97.61
10079;BME280;5078;42.544;22.966;2022-09-02T12:58:28;93551.03;;;23.97;97.98
10079;BME280;5078;42.544;22.966;2022-09-02T13:01:05;93592.28;;;24.20;96.36
10079;BME280;5078;42.544;22.966;2022-09-02T13:07:05;93593.47;;;24.95;94.62
10079;BME280;5078;42.544;22.966;2022-09-02T13:10:02;93564.16;;;25.13;91.56
10079;BME280;5078;42.544;22.966;2022-09-02T13:16:02;93584.00;;;25.29;87.71
10079;BME280;5078;42.544;22.966;2022-09-02T13:18:54;93589.94;;;25.51;85.52
10079;BME280;5078;42.544;22.966;2022-09-02T13:27:42;93605.34;;;24.48;82.58
10079;BME280;5078;42.544;22.966;2022-09-02T13:30:17;93600.66;;;24.18;84.07
10079;BME280;5078;42.544;22.966;2022-09-02T13:32:54;93587.09;;;24.13;82.87